sensor_id;sensor_type;location;lat;lon;timestamp;temperature;humidity
12887;DHT22;6511;49.746;6.094;2023-05-15T00:01:42;9.60;99.90
12887;DHT22;6511;49.746;6.094;2023-05-15T00:04:08;9.40;99.90
12887;DHT22;6511;49.746;6.094;2023-05-15T00:06:34;9.40;99.90
12887;DHT22;6511;49.746;6.094;2023-05-15T00:09:00;9.30;99.90
12887;DHT22;6511;49.746;6.094;2023-05-15T00:11:26;9.30;99.90
12887;DHT22;6511;49.746;6.094;2023-05-15T00:13:52;8.90;99.90
12887;DHT22;6511;49.746;6.094;2023-05-15T00:16:18;8.80;99.90
12887;DHT22;6511;49.746;6.094;2023-05-15T00:18:43;8.80;99.90
12887;DHT22;6511;49.746;6.094;2023-05-15T00:21:09;8.70;99.90
12887;DHT22;6511;49.746;6.094;2023-05-15T00:23:35;8.70;99.90
12887;DHT22;6511;49.746;6.094;2023-05-15T00:26:00;8.90;99.90
12887;DHT22;6511;49.746;6.094;2023-05-15T00:28:26;8.90;99.90
12887;DHT22;6511;49.746;6.094;2023-05-15T00:30:52;8.90;99.90
12887;DHT22;6511;49.746;6.094;2023-05-15T00:33:17;9.20;99.90
12887;DHT22;6511;49.746;6.094;2023-05-15T00:35:43;9.20;99.90
12887;DHT22;6511;49.746;6.094;2023-05-15T00:38:11;9.20;99.90
12887;DHT22;6511;49.746;6.094;2023-05-15T00:40:37;9.20;99.90
12887;DHT22;6511;49.746;6.094;2023-05-15T00:43:04;9.10;99.90
12887;DHT22;6511;49.746;6.094;2023-05-15T00:45:31;9.10;99.90
12887;DHT22;6511;49.746;6.094;2023-05-15T00:48:00;9.10;99.90
12887;DHT22;6511;49.746;6.094;2023-05-15T00:50:26;9.00;99.90
12887;DHT22;6511;49.746;6.094;2023-05-15T00:52:52;9.10;99.90
12887;DHT22;6511;49.746;6.094;2023-05-15T00:55:19;9.00;99.90
12887;DHT22;6511;49.746;6.094;2023-05-15T00:57:46;9.10;99.90
12887;DHT22;6511;49.746;6.094;2023-05-15T01:00:13;9.00;99.90
12887;DHT22;6511;49.746;6.094;2023-05-15T01:02:41;8.90;99.90
12887;DHT22;6511;49.746;6.094;2023-05-15T01:05:07;8.90;99.90
12887;DHT22;6511;49.746;6.094;2023-05-15T01:07:39;8.90;99.90
12887;DHT22;6511;49.746;6.094;2023-05-15T01:10:08;9.00;99.90
12887;DHT22;6511;49.746;6.094;2023-05-15T01:12:35;8.90;99.90
12887;DHT22;6511;49.746;6.094;2023-05-15T01:15:02;8.90;99.90
12887;DHT22;6511;49.746;6.094;2023-05-15T01:17:27;8.90;99.90
12887;DHT22;6511;49.746;6.094;2023-05-15T01:19:54;9.00;99.90
12887;DHT22;6511;49.746;6.094;2023-05-15T01:22:31;9.00;99.90
12887;DHT22;6511;49.746;6.094;2023-05-15T01:27:39;8.90;99.90
12887;DHT22;6511;49.746;6.094;2023-05-15T01:30:21;8.80;99.90
12887;DHT22;6511;49.746;6.094;2023-05-15T01:35:23;8.90;99.90
12887;DHT22;6511;49.746;6.094;2023-05-15T01:40:36;8.80;99.90
12887;DHT22;6511;49.746;6.094;2023-05-15T01:43:07;8.90;99.90
12887;DHT22;6511;49.746;6.094;2023-05-15T01:45:34;9.00;99.90
12887;DHT22;6511;49.746;6.094;2023-05-15T01:48:05;9.00;99.90
12887;DHT22;6511;49.746;6.094;2023-05-15T01:50:31;9.00;99.90
12887;DHT22;6511;49.746;6.094;2023-05-15T01:53:00;9.00;99.90
12887;DHT22;6511;49.746;6.094;2023-05-15T01:55:27;9.00;99.90
12887;DHT22;6511;49.746;6.094;2023-05-15T01:57:55;9.00;99.90
12887;DHT22;6511;49.746;6.094;2023-05-15T02:00:24;8.90;99.90
12887;DHT22;6511;49.746;6.094;2023-05-15T02:02:50;8.90;99.90
12887;DHT22;6511;49.746;6.094;2023-05-15T02:05:17;8.90;99.90
12887;DHT22;6511;49.746;6.094;2023-05-15T02:07:44;8.90;99.90
12887;DHT22;6511;49.746;6.094;2023-05-15T02:10:11;9.00;99.90
12887;DHT22;6511;49.746;6.094;2023-05-15T02:12:41;9.00;99.90
12887;DHT22;6511;49.746;6.094;2023-05-15T02:15:09;9.00;99.90
12887;DHT22;6511;49.746;6.094;2023-05-15T02:17:35;9.10;99.90
12887;DHT22;6511;49.746;6.094;2023-05-15T02:20:01;9.10;99.90
12887;DHT22;6511;49.746;6.094;2023-05-15T02:22:26;9.10;99.90
12887;DHT22;6511;49.746;6.094;2023-05-15T02:24:52;9.10;99.90
12887;DHT22;6511;49.746;6.094;2023-05-15T02:27:26;9.10;99.90
12887;DHT22;6511;49.746;6.094;2023-05-15T02:32:49;9.00;99.90
12887;DHT22;6511;49.746;6.094;2023-05-15T02:38:00;9.00;99.90
12887;DHT22;6511;49.746;6.094;2023-05-15T02:40:27;8.90;99.90
12887;DHT22;6511;49.746;6.094;2023-05-15T02:42:54;9.00;99.90
12887;DHT22;6511;49.746;6.094;2023-05-15T02:45:19;9.10;99.90
12887;DHT22;6511;49.746;6.094;2023-05-15T02:47:47;9.00;99.90
12887;DHT22;6511;49.746;6.094;2023-05-15T02:50:15;9.00;99.90
12887;DHT22;6511;49.746;6.094;2023-05-15T02:52:41;9.00;99.90
12887;DHT22;6511;49.746;6.094;2023-05-15T02:55:08;9.00;99.90
12887;DHT22;6511;49.746;6.094;2023-05-15T02:57:34;9.00;99.90
12887;DHT22;6511;49.746;6.094;2023-05-15T03:00:00;9.00;99.90
12887;DHT22;6511;49.746;6.094;2023-05-15T03:02:26;8.90;99.90
12887;DHT22;6511;49.746;6.094;2023-05-15T03:04:51;9.00;99.90
12887;DHT22;6511;49.746;6.094;2023-05-15T03:07:17;9.00;99.90
12887;DHT22;6511;49.746;6.094;2023-05-15T03:09:42;9.00;99.90
12887;DHT22;6511;49.746;6.094;2023-05-15T03:12:09;8.60;99.90
12887;DHT22;6511;49.746;6.094;2023-05-15T03:14:34;8.50;99.90
12887;DHT22;6511;49.746;6.094;2023-05-15T03:17:00;8.50;99.90
12887;DHT22;6511;49.746;6.094;2023-05-15T03:19:25;8.50;99.90
12887;DHT22;6511;49.746;6.094;2023-05-15T03:21:51;8.50;99.90
12887;DHT22;6511;49.746;6.094;2023-05-15T03:24:17;8.50;99.90
12887;DHT22;6511;49.746;6.094;2023-05-15T03:26:42;8.60;99.90
12887;DHT22;6511;49.746;6.094;2023-05-15T03:29:09;8.60;99.90
12887;DHT22;6511;49.746;6.094;2023-05-15T03:31:35;8.70;99.90
12887;DHT22;6511;49.746;6.094;2023-05-15T03:34:00;8.60;99.90
12887;DHT22;6511;49.746;6.094;2023-05-15T03:36:26;8.60;99.90
12887;DHT22;6511;49.746;6.094;2023-05-15T03:38:52;8.60;99.90
12887;DHT22;6511;49.746;6.094;2023-05-15T03:41:17;8.60;99.90
12887;DHT22;6511;49.746;6.094;2023-05-15T03:43:43;8.60;99.90
12887;DHT22;6511;49.746;6.094;2023-05-15T03:46:08;8.60;99.90
12887;DHT22;6511;49.746;6.094;2023-05-15T03:48:34;8.60;99.90
12887;DHT22;6511;49.746;6.094;2023-05-15T03:50:59;8.50;99.90
12887;DHT22;6511;49.746;6.094;2023-05-15T03:53:25;8.40;99.90
12887;DHT22;6511;49.746;6.094;2023-05-15T03:55:51;8.40;99.90
12887;DHT22;6511;49.746;6.094;2023-05-15T03:58:16;8.50;99.90
12887;DHT22;6511;49.746;6.094;2023-05-15T04:00:42;8.50;99.90
12887;DHT22;6511;49.746;6.094;2023-05-15T04:03:08;8.50;99.90
12887;DHT22;6511;49.746;6.094;2023-05-15T04:05:33;8.40;99.90
12887;DHT22;6511;49.746;6.094;2023-05-15T04:07:59;8.40;99.90
12887;DHT22;6511;49.746;6.094;2023-05-15T04:10:25;8.40;99.90
12887;DHT22;6511;49.746;6.094;2023-05-15T04:12:50;8.50;99.90
12887;DHT22;6511;49.746;6.094;2023-05-15T04:15:20;8.60;99.90
12887;DHT22;6511;49.746;6.094;2023-05-15T04:17:47;8.70;99.90
12887;DHT22;6511;49.746;6.094;2023-05-15T04:20:14;8.70;99.90
12887;DHT22;6511;49.746;6.094;2023-05-15T04:22:41;8.90;99.90
12887;DHT22;6511;49.746;6.094;2023-05-15T04:25:07;9.00;99.90
12887;DHT22;6511;49.746;6.094;2023-05-15T04:27:34;8.80;99.90
12887;DHT22;6511;49.746;6.094;2023-05-15T04:30:00;8.90;99.90
12887;DHT22;6511;49.746;6.094;2023-05-15T04:32:26;9.00;99.90
12887;DHT22;6511;49.746;6.094;2023-05-15T04:34:52;9.10;99.90
12887;DHT22;6511;49.746;6.094;2023-05-15T04:37:18;9.20;99.90
12887;DHT22;6511;49.746;6.094;2023-05-15T04:39:43;9.30;99.90
12887;DHT22;6511;49.746;6.094;2023-05-15T04:42:09;9.40;99.90
12887;DHT22;6511;49.746;6.094;2023-05-15T04:44:35;9.30;99.90
12887;DHT22;6511;49.746;6.094;2023-05-15T04:47:00;9.40;99.90
12887;DHT22;6511;49.746;6.094;2023-05-15T04:49:26;9.40;99.90
12887;DHT22;6511;49.746;6.094;2023-05-15T04:51:51;9.50;99.90
12887;DHT22;6511;49.746;6.094;2023-05-15T04:54:17;9.50;99.90
12887;DHT22;6511;49.746;6.094;2023-05-15T04:56:44;9.60;99.90
12887;DHT22;6511;49.746;6.094;2023-05-15T04:59:10;9.80;99.90
12887;DHT22;6511;49.746;6.094;2023-05-15T05:01:35;10.00;99.90
12887;DHT22;6511;49.746;6.094;2023-05-15T05:04:01;10.20;99.90
12887;DHT22;6511;49.746;6.094;2023-05-15T05:06:27;10.40;99.90
12887;DHT22;6511;49.746;6.094;2023-05-15T05:08:52;10.50;99.90
12887;DHT22;6511;49.746;6.094;2023-05-15T05:11:18;10.60;99.90
12887;DHT22;6511;49.746;6.094;2023-05-15T05:13:44;10.70;99.90
12887;DHT22;6511;49.746;6.094;2023-05-15T05:16:09;10.80;99.90
12887;DHT22;6511;49.746;6.094;2023-05-15T05:18:35;10.90;99.90
12887;DHT22;6511;49.746;6.094;2023-05-15T05:21:02;11.10;99.90
12887;DHT22;6511;49.746;6.094;2023-05-15T05:23:29;11.20;99.90
12887;DHT22;6511;49.746;6.094;2023-05-15T05:25:55;11.40;99.90
12887;DHT22;6511;49.746;6.094;2023-05-15T05:28:20;11.50;99.90
12887;DHT22;6511;49.746;6.094;2023-05-15T05:30:47;11.50;99.90
12887;DHT22;6511;49.746;6.094;2023-05-15T05:33:13;11.60;99.90
12887;DHT22;6511;49.746;6.094;2023-05-15T05:35:39;11.60;99.90
12887;DHT22;6511;49.746;6.094;2023-05-15T05:38:04;11.70;99.90
12887;DHT22;6511;49.746;6.094;2023-05-15T05:40:30;11.60;99.90
12887;DHT22;6511;49.746;6.094;2023-05-15T05:43:02;11.70;99.90
12887;DHT22;6511;49.746;6.094;2023-05-15T05:45:28;11.80;99.90
12887;DHT22;6511;49.746;6.094;2023-05-15T05:47:54;11.90;99.90
12887;DHT22;6511;49.746;6.094;2023-05-15T05:50:20;12.00;99.90
12887;DHT22;6511;49.746;6.094;2023-05-15T05:52:46;12.00;99.90
12887;DHT22;6511;49.746;6.094;2023-05-15T05:55:11;12.00;99.90
12887;DHT22;6511;49.746;6.094;2023-05-15T05:57:37;12.00;99.90
12887;DHT22;6511;49.746;6.094;2023-05-15T06:00:03;12.00;99.90
12887;DHT22;6511;49.746;6.094;2023-05-15T06:02:33;12.10;99.90
12887;DHT22;6511;49.746;6.094;2023-05-15T06:04:58;12.00;99.90
12887;DHT22;6511;49.746;6.094;2023-05-15T06:07:24;12.00;99.90
12887;DHT22;6511;49.746;6.094;2023-05-15T06:09:49;12.20;99.90
12887;DHT22;6511;49.746;6.094;2023-05-15T06:12:15;12.20;99.90
12887;DHT22;6511;49.746;6.094;2023-05-15T06:14:41;12.20;99.90
12887;DHT22;6511;49.746;6.094;2023-05-15T06:17:07;12.20;99.90
12887;DHT22;6511;49.746;6.094;2023-05-15T06:19:32;12.40;99.90
12887;DHT22;6511;49.746;6.094;2023-05-15T06:21:58;12.50;99.90
12887;DHT22;6511;49.746;6.094;2023-05-15T06:24:23;12.50;99.90
12887;DHT22;6511;49.746;6.094;2023-05-15T06:26:49;12.60;99.90
12887;DHT22;6511;49.746;6.094;2023-05-15T06:29:15;12.60;99.90
12887;DHT22;6511;49.746;6.094;2023-05-15T06:31:41;12.60;99.90
12887;DHT22;6511;49.746;6.094;2023-05-15T06:34:07;12.60;99.90
12887;DHT22;6511;49.746;6.094;2023-05-15T06:36:32;12.50;99.90
12887;DHT22;6511;49.746;6.094;2023-05-15T06:38:58;12.60;99.90
12887;DHT22;6511;49.746;6.094;2023-05-15T06:41:24;12.60;99.90
12887;DHT22;6511;49.746;6.094;2023-05-15T06:43:49;12.70;99.90
12887;DHT22;6511;49.746;6.094;2023-05-15T06:46:15;12.60;99.90
12887;DHT22;6511;49.746;6.094;2023-05-15T06:48:43;12.60;99.90
12887;DHT22;6511;49.746;6.094;2023-05-15T06:51:09;12.70;99.90
12887;DHT22;6511;49.746;6.094;2023-05-15T06:53:35;12.60;99.90
12887;DHT22;6511;49.746;6.094;2023-05-15T06:56:00;12.70;99.90
12887;DHT22;6511;49.746;6.094;2023-05-15T06:58:26;12.90;99.90
12887;DHT22;6511;49.746;6.094;2023-05-15T07:00:52;13.00;99.90
12887;DHT22;6511;49.746;6.094;2023-05-15T07:03:17;13.10;99.90
12887;DHT22;6511;49.746;6.094;2023-05-15T07:05:44;13.10;99.90
12887;DHT22;6511;49.746;6.094;2023-05-15T07:08:09;13.30;99.90
12887;DHT22;6511;49.746;6.094;2023-05-15T07:10:35;13.40;99.90
12887;DHT22;6511;49.746;6.094;2023-05-15T07:13:00;13.40;99.90
12887;DHT22;6511;49.746;6.094;2023-05-15T07:15:26;13.50;99.90
12887;DHT22;6511;49.746;6.094;2023-05-15T07:17:52;13.60;99.90
12887;DHT22;6511;49.746;6.094;2023-05-15T07:20:17;13.60;99.90
12887;DHT22;6511;49.746;6.094;2023-05-15T07:22:43;13.40;99.90
12887;DHT22;6511;49.746;6.094;2023-05-15T07:25:09;13.50;99.90
12887;DHT22;6511;49.746;6.094;2023-05-15T07:27:34;13.80;99.90
12887;DHT22;6511;49.746;6.094;2023-05-15T07:30:01;13.90;99.90
12887;DHT22;6511;49.746;6.094;2023-05-15T07:32:28;13.80;99.90
12887;DHT22;6511;49.746;6.094;2023-05-15T07:34:55;13.90;99.90
12887;DHT22;6511;49.746;6.094;2023-05-15T07:37:21;14.00;99.90
12887;DHT22;6511;49.746;6.094;2023-05-15T07:39:47;13.90;99.90
12887;DHT22;6511;49.746;6.094;2023-05-15T07:42:13;13.80;99.90
12887;DHT22;6511;49.746;6.094;2023-05-15T07:44:38;14.10;99.90
12887;DHT22;6511;49.746;6.094;2023-05-15T07:47:04;14.20;99.90
12887;DHT22;6511;49.746;6.094;2023-05-15T07:49:30;14.10;99.90
12887;DHT22;6511;49.746;6.094;2023-05-15T07:51:56;14.20;99.90
12887;DHT22;6511;49.746;6.094;2023-05-15T07:54:21;14.10;99.90
12887;DHT22;6511;49.746;6.094;2023-05-15T07:56:47;14.30;99.90
12887;DHT22;6511;49.746;6.094;2023-05-15T07:59:12;14.10;99.90
12887;DHT22;6511;49.746;6.094;2023-05-15T08:01:38;14.20;99.90
12887;DHT22;6511;49.746;6.094;2023-05-15T08:04:06;14.40;99.90
12887;DHT22;6511;49.746;6.094;2023-05-15T08:06:32;14.40;99.90
12887;DHT22;6511;49.746;6.094;2023-05-15T08:08:58;14.60;99.90
12887;DHT22;6511;49.746;6.094;2023-05-15T08:11:24;14.60;99.90
12887;DHT22;6511;49.746;6.094;2023-05-15T08:13:49;15.10;99.90
12887;DHT22;6511;49.746;6.094;2023-05-15T08:16:15;15.30;99.90
12887;DHT22;6511;49.746;6.094;2023-05-15T08:18:40;14.90;99.90
12887;DHT22;6511;49.746;6.094;2023-05-15T08:21:06;14.70;99.90
12887;DHT22;6511;49.746;6.094;2023-05-15T08:23:32;14.60;99.90
12887;DHT22;6511;49.746;6.094;2023-05-15T08:25:57;14.50;99.90
12887;DHT22;6511;49.746;6.094;2023-05-15T08:28:23;14.80;99.90
12887;DHT22;6511;49.746;6.094;2023-05-15T08:30:49;14.80;99.90
12887;DHT22;6511;49.746;6.094;2023-05-15T08:33:15;14.90;99.90
12887;DHT22;6511;49.746;6.094;2023-05-15T08:35:40;14.80;99.90
12887;DHT22;6511;49.746;6.094;2023-05-15T08:38:06;14.70;99.90
12887;DHT22;6511;49.746;6.094;2023-05-15T08:40:31;14.50;99.90
12887;DHT22;6511;49.746;6.094;2023-05-15T08:43:02;14.50;99.90
12887;DHT22;6511;49.746;6.094;2023-05-15T08:45:28;14.50;99.90
12887;DHT22;6511;49.746;6.094;2023-05-15T08:47:54;14.60;99.90
12887;DHT22;6511;49.746;6.094;2023-05-15T08:50:22;14.70;99.90
12887;DHT22;6511;49.746;6.094;2023-05-15T08:52:49;14.80;99.90
12887;DHT22;6511;49.746;6.094;2023-05-15T08:55:16;15.00;99.90
12887;DHT22;6511;49.746;6.094;2023-05-15T08:57:43;15.10;99.90
12887;DHT22;6511;49.746;6.094;2023-05-15T09:00:10;15.20;99.90
12887;DHT22;6511;49.746;6.094;2023-05-15T09:02:39;15.50;99.90
12887;DHT22;6511;49.746;6.094;2023-05-15T09:05:05;15.50;99.90
12887;DHT22;6511;49.746;6.094;2023-05-15T09:07:32;15.50;99.90
12887;DHT22;6511;49.746;6.094;2023-05-15T09:09:58;15.40;99.90
12887;DHT22;6511;49.746;6.094;2023-05-15T09:12:25;15.70;99.90
12887;DHT22;6511;49.746;6.094;2023-05-15T09:14:53;15.90;99.90
12887;DHT22;6511;49.746;6.094;2023-05-15T09:17:32;16.00;99.90
12887;DHT22;6511;49.746;6.094;2023-05-15T09:19:57;16.30;99.90
12887;DHT22;6511;49.746;6.094;2023-05-15T09:22:23;16.40;99.90
12887;DHT22;6511;49.746;6.094;2023-05-15T09:24:51;16.50;99.90
12887;DHT22;6511;49.746;6.094;2023-05-15T09:27:18;16.20;99.90
12887;DHT22;6511;49.746;6.094;2023-05-15T09:29:44;16.00;99.90
12887;DHT22;6511;49.746;6.094;2023-05-15T09:32:12;16.20;99.90
12887;DHT22;6511;49.746;6.094;2023-05-15T09:34:40;15.90;99.90
12887;DHT22;6511;49.746;6.094;2023-05-15T09:37:08;16.00;99.90
12887;DHT22;6511;49.746;6.094;2023-05-15T09:39:40;16.10;99.90
12887;DHT22;6511;49.746;6.094;2023-05-15T09:42:08;15.70;99.90
12887;DHT22;6511;49.746;6.094;2023-05-15T09:44:34;15.80;99.90
12887;DHT22;6511;49.746;6.094;2023-05-15T09:47:00;15.70;99.90
12887;DHT22;6511;49.746;6.094;2023-05-15T09:49:29;15.70;99.90
12887;DHT22;6511;49.746;6.094;2023-05-15T09:51:59;15.70;99.90
12887;DHT22;6511;49.746;6.094;2023-05-15T09:54:26;15.80;99.90
12887;DHT22;6511;49.746;6.094;2023-05-15T09:56:52;15.80;99.90
12887;DHT22;6511;49.746;6.094;2023-05-15T09:59:18;16.00;99.90
12887;DHT22;6511;49.746;6.094;2023-05-15T10:01:49;16.20;99.90
12887;DHT22;6511;49.746;6.094;2023-05-15T10:04:15;16.20;99.90
12887;DHT22;6511;49.746;6.094;2023-05-15T10:06:45;16.20;99.90
12887;DHT22;6511;49.746;6.094;2023-05-15T10:09:12;16.40;99.90
12887;DHT22;6511;49.746;6.094;2023-05-15T10:11:40;16.50;99.90
12887;DHT22;6511;49.746;6.094;2023-05-15T10:14:07;16.40;99.90
12887;DHT22;6511;49.746;6.094;2023-05-15T10:16:34;16.40;99.90
12887;DHT22;6511;49.746;6.094;2023-05-15T10:19:09;16.40;99.90
12887;DHT22;6511;49.746;6.094;2023-05-15T10:21:37;16.50;99.90
12887;DHT22;6511;49.746;6.094;2023-05-15T10:24:04;16.50;99.90
12887;DHT22;6511;49.746;6.094;2023-05-15T10:26:39;16.70;99.90
12887;DHT22;6511;49.746;6.094;2023-05-15T10:29:10;16.80;99.90
12887;DHT22;6511;49.746;6.094;2023-05-15T10:31:36;16.80;99.90
12887;DHT22;6511;49.746;6.094;2023-05-15T10:34:03;16.80;99.90
12887;DHT22;6511;49.746;6.094;2023-05-15T10:36:34;17.00;99.90
12887;DHT22;6511;49.746;6.094;2023-05-15T10:39:02;16.90;99.90
12887;DHT22;6511;49.746;6.094;2023-05-15T10:41:29;16.90;99.90
12887;DHT22;6511;49.746;6.094;2023-05-15T10:43:58;16.90;99.90
12887;DHT22;6511;49.746;6.094;2023-05-15T10:46:28;16.90;99.90
12887;DHT22;6511;49.746;6.094;2023-05-15T10:48:56;17.10;99.90
12887;DHT22;6511;49.746;6.094;2023-05-15T10:51:24;17.30;99.90
12887;DHT22;6511;49.746;6.094;2023-05-15T10:53:52;17.40;99.90
12887;DHT22;6511;49.746;6.094;2023-05-15T10:56:17;17.30;99.90
12887;DHT22;6511;49.746;6.094;2023-05-15T10:58:50;17.30;99.90
12887;DHT22;6511;49.746;6.094;2023-05-15T11:01:27;17.40;99.90
12887;DHT22;6511;49.746;6.094;2023-05-15T11:06:42;17.70;99.90
12887;DHT22;6511;49.746;6.094;2023-05-15T11:11:58;17.80;99.90
12887;DHT22;6511;49.746;6.094;2023-05-15T11:14:34;18.00;99.90
12887;DHT22;6511;49.746;6.094;2023-05-15T11:17:02;18.00;99.90
12887;DHT22;6511;49.746;6.094;2023-05-15T11:21:56;18.00;99.90
12887;DHT22;6511;49.746;6.094;2023-05-15T11:24:30;18.00;99.90
12887;DHT22;6511;49.746;6.094;2023-05-15T11:27:03;18.00;99.90
12887;DHT22;6511;49.746;6.094;2023-05-15T11:29:29;18.00;99.90
12887;DHT22;6511;49.746;6.094;2023-05-15T11:31:55;18.20;99.90
12887;DHT22;6511;49.746;6.094;2023-05-15T11:34:34;18.20;99.90
12887;DHT22;6511;49.746;6.094;2023-05-15T11:37:00;18.10;99.90
12887;DHT22;6511;49.746;6.094;2023-05-15T11:39:26;18.30;99.90
12887;DHT22;6511;49.746;6.094;2023-05-15T11:41:53;18.50;99.90
12887;DHT22;6511;49.746;6.094;2023-05-15T11:44:20;18.50;99.90
12887;DHT22;6511;49.746;6.094;2023-05-15T11:46:46;18.50;99.90
12887;DHT22;6511;49.746;6.094;2023-05-15T11:49:12;18.60;99.90
12887;DHT22;6511;49.746;6.094;2023-05-15T11:51:38;18.60;99.90
12887;DHT22;6511;49.746;6.094;2023-05-15T11:54:09;18.50;99.90
12887;DHT22;6511;49.746;6.094;2023-05-15T11:56:43;18.70;99.90
12887;DHT22;6511;49.746;6.094;2023-05-15T11:59:14;19.10;99.90
12887;DHT22;6511;49.746;6.094;2023-05-15T12:01:44;19.20;99.90
12887;DHT22;6511;49.746;6.094;2023-05-15T12:04:13;19.20;99.90
12887;DHT22;6511;49.746;6.094;2023-05-15T12:06:42;19.40;99.90
12887;DHT22;6511;49.746;6.094;2023-05-15T12:09:18;19.40;99.90
12887;DHT22;6511;49.746;6.094;2023-05-15T12:11:55;19.60;99.90
12887;DHT22;6511;49.746;6.094;2023-05-15T12:16:53;19.00;99.90
12887;DHT22;6511;49.746;6.094;2023-05-15T12:19:26;18.80;99.90
12887;DHT22;6511;49.746;6.094;2023-05-15T12:21:52;19.00;99.90
12887;DHT22;6511;49.746;6.094;2023-05-15T12:24:19;19.20;99.90
12887;DHT22;6511;49.746;6.094;2023-05-15T12:26:45;19.10;99.90
12887;DHT22;6511;49.746;6.094;2023-05-15T12:29:11;19.40;99.90
12887;DHT22;6511;49.746;6.094;2023-05-15T12:31:37;19.40;99.90
12887;DHT22;6511;49.746;6.094;2023-05-15T12:34:03;18.90;99.90
12887;DHT22;6511;49.746;6.094;2023-05-15T12:36:29;18.70;99.90
12887;DHT22;6511;49.746;6.094;2023-05-15T12:38:56;18.80;99.90
12887;DHT22;6511;49.746;6.094;2023-05-15T12:41:26;19.00;99.90
12887;DHT22;6511;49.746;6.094;2023-05-15T12:43:52;19.00;99.90
12887;DHT22;6511;49.746;6.094;2023-05-15T12:46:21;19.00;99.90
12887;DHT22;6511;49.746;6.094;2023-05-15T12:48:48;19.20;99.90
12887;DHT22;6511;49.746;6.094;2023-05-15T12:51:15;19.20;99.90
12887;DHT22;6511;49.746;6.094;2023-05-15T12:53:41;19.40;99.90
12887;DHT22;6511;49.746;6.094;2023-05-15T12:56:08;19.30;99.90
12887;DHT22;6511;49.746;6.094;2023-05-15T12:58:34;19.20;99.90
12887;DHT22;6511;49.746;6.094;2023-05-15T13:01:00;19.40;99.90
12887;DHT22;6511;49.746;6.094;2023-05-15T13:03:28;19.30;99.90
12887;DHT22;6511;49.746;6.094;2023-05-15T13:05:53;19.10;99.90
12887;DHT22;6511;49.746;6.094;2023-05-15T13:08:19;19.20;99.90
12887;DHT22;6511;49.746;6.094;2023-05-15T13:10:46;19.40;99.90
12887;DHT22;6511;49.746;6.094;2023-05-15T13:13:12;19.20;99.90
12887;DHT22;6511;49.746;6.094;2023-05-15T13:15:43;19.40;99.90
12887;DHT22;6511;49.746;6.094;2023-05-15T13:18:13;19.40;99.90
12887;DHT22;6511;49.746;6.094;2023-05-15T13:20:40;19.30;99.90
12887;DHT22;6511;49.746;6.094;2023-05-15T13:23:07;19.40;99.90
12887;DHT22;6511;49.746;6.094;2023-05-15T13:25:33;19.50;99.90
12887;DHT22;6511;49.746;6.094;2023-05-15T13:28:00;19.30;99.90
12887;DHT22;6511;49.746;6.094;2023-05-15T13:30:33;19.30;99.90
12887;DHT22;6511;49.746;6.094;2023-05-15T13:32:59;19.20;99.90
12887;DHT22;6511;49.746;6.094;2023-05-15T13:35:26;19.40;99.90
12887;DHT22;6511;49.746;6.094;2023-05-15T13:37:52;19.60;99.90
12887;DHT22;6511;49.746;6.094;2023-05-15T13:40:18;19.50;99.90
12887;DHT22;6511;49.746;6.094;2023-05-15T13:42:44;19.10;99.90
12887;DHT22;6511;49.746;6.094;2023-05-15T13:45:11;19.30;99.90
12887;DHT22;6511;49.746;6.094;2023-05-15T13:47:37;19.10;99.90
12887;DHT22;6511;49.746;6.094;2023-05-15T13:50:07;19.20;99.90
12887;DHT22;6511;49.746;6.094;2023-05-15T13:52:33;19.40;99.90
12887;DHT22;6511;49.746;6.094;2023-05-15T13:54:59;19.40;99.90
12887;DHT22;6511;49.746;6.094;2023-05-15T13:57:25;19.40;99.90
12887;DHT22;6511;49.746;6.094;2023-05-15T13:59:51;19.10;99.90
12887;DHT22;6511;49.746;6.094;2023-05-15T14:02:17;19.00;99.90
12887;DHT22;6511;49.746;6.094;2023-05-15T14:04:42;19.20;99.90
12887;DHT22;6511;49.746;6.094;2023-05-15T14:07:08;19.20;99.90
12887;DHT22;6511;49.746;6.094;2023-05-15T14:09:33;19.30;99.90
12887;DHT22;6511;49.746;6.094;2023-05-15T14:11:59;19.30;99.90
12887;DHT22;6511;49.746;6.094;2023-05-15T14:14:25;19.20;99.90
12887;DHT22;6511;49.746;6.094;2023-05-15T14:16:51;19.10;99.90
12887;DHT22;6511;49.746;6.094;2023-05-15T14:19:16;19.20;99.90
12887;DHT22;6511;49.746;6.094;2023-05-15T14:21:42;19.10;99.90
12887;DHT22;6511;49.746;6.094;2023-05-15T14:24:07;19.30;99.90
12887;DHT22;6511;49.746;6.094;2023-05-15T14:26:33;19.30;99.90
12887;DHT22;6511;49.746;6.094;2023-05-15T14:28:59;19.30;99.90
12887;DHT22;6511;49.746;6.094;2023-05-15T14:31:24;19.30;99.90
12887;DHT22;6511;49.746;6.094;2023-05-15T14:33:51;19.30;99.90
12887;DHT22;6511;49.746;6.094;2023-05-15T14:36:16;19.30;99.90
12887;DHT22;6511;49.746;6.094;2023-05-15T14:38:42;19.40;99.90
12887;DHT22;6511;49.746;6.094;2023-05-15T14:41:13;19.50;99.90
12887;DHT22;6511;49.746;6.094;2023-05-15T14:43:38;19.20;99.90
12887;DHT22;6511;49.746;6.094;2023-05-15T14:46:04;19.30;99.90
12887;DHT22;6511;49.746;6.094;2023-05-15T14:48:30;19.30;99.90
12887;DHT22;6511;49.746;6.094;2023-05-15T14:50:56;19.00;99.90
12887;DHT22;6511;49.746;6.094;2023-05-15T14:53:22;19.00;99.90
12887;DHT22;6511;49.746;6.094;2023-05-15T14:55:48;19.00;99.90
12887;DHT22;6511;49.746;6.094;2023-05-15T14:58:14;19.20;99.90
12887;DHT22;6511;49.746;6.094;2023-05-15T15:00:39;19.20;99.90
12887;DHT22;6511;49.746;6.094;2023-05-15T15:03:06;19.20;99.90
12887;DHT22;6511;49.746;6.094;2023-05-15T15:05:31;19.10;99.90
12887;DHT22;6511;49.746;6.094;2023-05-15T15:08:04;19.00;99.90
12887;DHT22;6511;49.746;6.094;2023-05-15T15:10:31;19.00;99.90
12887;DHT22;6511;49.746;6.094;2023-05-15T15:12:57;18.90;99.90
12887;DHT22;6511;49.746;6.094;2023-05-15T15:15:23;18.90;99.90
12887;DHT22;6511;49.746;6.094;2023-05-15T15:17:49;18.60;99.90
12887;DHT22;6511;49.746;6.094;2023-05-15T15:20:17;18.60;99.90
12887;DHT22;6511;49.746;6.094;2023-05-15T15:22:44;18.40;99.90
12887;DHT22;6511;49.746;6.094;2023-05-15T15:25:09;18.40;99.90
12887;DHT22;6511;49.746;6.094;2023-05-15T15:27:35;18.40;99.90
12887;DHT22;6511;49.746;6.094;2023-05-15T15:30:05;18.40;99.90
12887;DHT22;6511;49.746;6.094;2023-05-15T15:32:31;18.30;99.90
12887;DHT22;6511;49.746;6.094;2023-05-15T15:34:57;18.20;99.90
12887;DHT22;6511;49.746;6.094;2023-05-15T15:37:23;18.20;99.90
12887;DHT22;6511;49.746;6.094;2023-05-15T15:39:49;18.40;99.90
12887;DHT22;6511;49.746;6.094;2023-05-15T15:42:15;18.40;99.90
12887;DHT22;6511;49.746;6.094;2023-05-15T15:44:41;18.30;99.90
12887;DHT22;6511;49.746;6.094;2023-05-15T15:47:07;18.10;99.90
12887;DHT22;6511;49.746;6.094;2023-05-15T15:49:33;18.00;99.90
12887;DHT22;6511;49.746;6.094;2023-05-15T15:51:58;17.80;99.90
12887;DHT22;6511;49.746;6.094;2023-05-15T15:54:24;17.70;99.90
12887;DHT22;6511;49.746;6.094;2023-05-15T15:56:50;17.60;99.90
12887;DHT22;6511;49.746;6.094;2023-05-15T15:59:26;17.60;99.90
12887;DHT22;6511;49.746;6.094;2023-05-15T16:01:52;17.60;99.90
12887;DHT22;6511;49.746;6.094;2023-05-15T16:04:17;17.60;99.90
12887;DHT22;6511;49.746;6.094;2023-05-15T16:06:43;17.60;99.90
12887;DHT22;6511;49.746;6.094;2023-05-15T16:09:08;17.50;99.90
12887;DHT22;6511;49.746;6.094;2023-05-15T16:11:34;17.50;99.90